Channing, Michigan
Current Conditions -  °F | °C
As of 10:54 PM on Saturday 22 Nov 2014 (Local Time) from KIMT Reporting Station
Haze Haze  
Wind Chill: 30°   Ceiling: 300
Heat Index: 35°   Visibility: 2.5mi
Dew Point: 33°   Wind: 6mph
Humidity: 92%   Direction: 170°S
Pressure: 29.7"   Gusts: NA
Location:  46.14°N, 88.09°W
Report Text: KIMT 230454Z AUTO 17005KT 2 1/2SM BR OVC003 02/01 A2970 RMK AO2 SLP072 T00170006
Loading
Personal Weather Stations






























Interactive Weather Map New forecast layout! Learn more

10-Day Weather Forecast

Advertisements
Track Severe Weather on mobile